createdAt,value
2024-04-30T00:00:12.804Z,1.60
2024-04-30T00:03:54.873Z,1.60
2024-04-30T00:07:38.915Z,1.63
2024-04-30T00:11:20.958Z,1.60
2024-04-30T00:15:03.170Z,1.98
2024-04-30T00:18:45.147Z,1.50
2024-04-30T00:22:27.621Z,1.60
2024-04-30T00:26:12.179Z,1.30
2024-04-30T00:29:54.109Z,1.85
2024-04-30T00:33:36.208Z,1.35
2024-04-30T00:37:18.205Z,1.63
2024-04-30T00:41:00.141Z,1.17
2024-04-30T00:44:42.145Z,1.65
2024-04-30T00:48:27.238Z,1.63
2024-04-30T00:52:10.006Z,1.45
2024-04-30T00:55:52.609Z,1.48
2024-04-30T00:59:34.534Z,1.48
2024-04-30T01:03:16.588Z,1.63
2024-04-30T01:06:58.885Z,1.90
2024-04-30T01:10:40.903Z,2.00
2024-04-30T01:14:22.840Z,0.95
2024-04-30T01:18:06.074Z,1.38
2024-04-30T01:21:48.389Z,1.38
2024-04-30T01:25:30.496Z,1.27
2024-04-30T01:29:12.573Z,1.33
2024-04-30T01:32:55.542Z,1.40
2024-04-30T01:36:37.569Z,1.42
2024-04-30T01:40:19.627Z,1.67
2024-04-30T01:44:01.571Z,1.05
2024-04-30T01:47:43.532Z,1.23
2024-04-30T01:51:25.528Z,1.20
2024-04-30T01:55:09.156Z,1.33
2024-04-30T01:58:51.573Z,1.05
2024-04-30T02:02:33.527Z,1.20
2024-04-30T02:06:15.540Z,1.67
2024-04-30T02:09:57.671Z,0.90
2024-04-30T02:13:39.688Z,1.40
2024-04-30T02:17:24.368Z,1.17
2024-04-30T02:21:06.374Z,1.13
2024-04-30T02:24:48.274Z,1.27
2024-04-30T02:28:30.885Z,1.55
2024-04-30T02:32:31.770Z,1.40
2024-04-30T02:36:14.644Z,1.70
2024-04-30T02:39:56.604Z,1.42
2024-04-30T02:43:38.644Z,1.92
2024-04-30T02:47:20.601Z,1.70
2024-04-30T02:51:03.548Z,1.20
2024-04-30T02:54:46.582Z,1.75
2024-04-30T02:58:28.581Z,1.58
2024-04-30T03:02:10.565Z,1.65
2024-04-30T03:05:54.041Z,2.58
2024-04-30T03:09:35.906Z,1.17
2024-04-30T03:13:18.137Z,1.90
2024-04-30T03:17:00.099Z,1.67
2024-04-30T03:20:42.053Z,1.90
2024-04-30T03:24:23.997Z,1.42
2024-04-30T03:28:06.153Z,1.15
2024-04-30T03:31:48.044Z,1.73
2024-04-30T03:35:30.052Z,1.27
2024-04-30T03:39:12.664Z,1.20
2024-04-30T03:42:54.737Z,2.13
2024-04-30T03:46:36.736Z,1.67
2024-04-30T03:50:18.805Z,1.65
2024-04-30T03:54:00.745Z,1.40
2024-04-30T03:57:42.729Z,1.67
2024-04-30T04:01:24.720Z,1.40
2024-04-30T04:05:06.876Z,1.73
2024-04-30T04:08:48.802Z,1.30
2024-04-30T04:12:49.160Z,1.30
2024-04-30T04:16:31.214Z,1.88
2024-04-30T04:20:13.430Z,1.42
2024-04-30T04:23:55.348Z,1.67
2024-04-30T04:27:37.365Z,1.80
2024-04-30T04:31:19.238Z,1.27
2024-04-30T04:35:01.137Z,2.38
2024-04-30T04:38:43.276Z,2.15
2024-04-30T04:42:25.531Z,2.47
2024-04-30T04:46:07.506Z,5.65
2024-04-30T04:49:49.599Z,2.10
2024-04-30T04:53:32.061Z,2.08
2024-04-30T04:57:14.038Z,2.05
2024-04-30T05:00:56.004Z,2.03
2024-04-30T05:04:38.008Z,2.33
2024-04-30T05:08:20.095Z,2.30
2024-04-30T05:12:02.164Z,2.13
2024-04-30T05:15:44.074Z,2.28
2024-04-30T05:19:26.142Z,2.58
2024-04-30T05:23:08.469Z,2.10
2024-04-30T05:26:50.389Z,1.80
2024-04-30T05:30:32.338Z,2.75
2024-04-30T05:34:14.277Z,2.35
2024-04-30T05:37:56.192Z,2.83
2024-04-30T05:41:38.112Z,3.15
2024-04-30T05:45:20.071Z,1.92
2024-04-30T05:49:02.059Z,3.85
2024-04-30T05:52:43.997Z,1.75
2024-04-30T05:56:26.065Z,1.98
2024-04-30T06:00:08.895Z,1.88
2024-04-30T06:03:50.880Z,2.05
2024-04-30T06:07:32.822Z,1.52
2024-04-30T06:11:14.887Z,1.52
2024-04-30T06:14:56.854Z,2.33
2024-04-30T06:18:38.884Z,2.17
2024-04-30T06:22:21.181Z,2.20
2024-04-30T06:26:04.441Z,2.45
2024-04-30T06:29:46.457Z,1.90
2024-04-30T06:33:28.453Z,3.78
2024-04-30T06:37:10.432Z,4.65
2024-04-30T06:40:52.379Z,3.92
2024-04-30T06:44:34.873Z,2.33
2024-04-30T06:48:16.926Z,1.90
2024-04-30T06:51:58.870Z,3.08
2024-04-30T06:55:40.948Z,1.70
2024-04-30T06:59:22.880Z,1.35
2024-04-30T07:03:05.357Z,1.67
2024-04-30T07:06:47.327Z,1.02
2024-04-30T07:10:29.365Z,2.15
2024-04-30T07:14:11.264Z,1.40
2024-04-30T07:17:53.541Z,1.13
2024-04-30T07:21:39.440Z,1.77
2024-04-30T07:25:21.440Z,1.88
2024-04-30T07:29:07.654Z,1.60
2024-04-30T07:32:52.310Z,1.43
2024-04-30T07:36:34.365Z,1.10
2024-04-30T07:40:16.587Z,1.10
2024-04-30T07:43:58.498Z,1.10
2024-04-30T07:47:40.562Z,1.20
2024-04-30T07:51:22.615Z,0.90
2024-04-30T07:55:04.927Z,1.98
2024-04-30T07:58:46.905Z,1.33
2024-04-30T08:02:28.923Z,1.25
2024-04-30T08:06:18.335Z,1.17
2024-04-30T08:10:04.816Z,1.17
2024-04-30T08:13:47.411Z,0.90
2024-04-30T08:17:29.469Z,1.40
2024-04-30T08:21:11.463Z,1.20
2024-04-30T08:24:53.457Z,0.75
2024-04-30T08:28:35.761Z,1.27
2024-04-30T08:32:18.305Z,1.13
2024-04-30T08:36:00.222Z,0.93
2024-04-30T08:39:42.202Z,0.85
2024-04-30T08:43:25.751Z,1.05
2024-04-30T08:47:09.031Z,0.60
2024-04-30T08:54:43.224Z,1.30
2024-04-30T08:58:25.226Z,0.95
2024-04-30T09:02:08.137Z,1.45
2024-04-30T09:05:50.871Z,0.88
2024-04-30T09:09:39.385Z,1.00
2024-04-30T09:13:34.069Z,1.45
2024-04-30T09:17:25.854Z,0.95
2024-04-30T09:21:16.546Z,1.33
2024-04-30T09:24:59.473Z,1.35
2024-04-30T09:28:43.634Z,1.08
2024-04-30T09:32:25.729Z,1.00
2024-04-30T09:36:10.252Z,1.02
2024-04-30T09:39:54.445Z,0.88
2024-04-30T09:43:36.708Z,1.08
2024-04-30T09:47:20.304Z,1.05
2024-04-30T09:51:13.210Z,1.38
2024-04-30T09:54:56.483Z,0.77
2024-04-30T09:58:40.263Z,0.77
2024-04-30T10:02:25.950Z,1.23
2024-04-30T10:06:09.703Z,0.60
2024-04-30T10:09:55.711Z,0.90
2024-04-30T10:13:54.683Z,0.95
2024-04-30T10:17:41.735Z,0.60
2024-04-30T10:21:33.803Z,0.68
2024-04-30T10:25:23.072Z,1.05
2024-04-30T10:29:05.850Z,0.75
2024-04-30T10:32:47.802Z,0.80
2024-04-30T10:36:29.841Z,0.77
2024-04-30T10:40:13.122Z,0.85
2024-04-30T10:44:03.216Z,0.55
2024-04-30T10:47:45.267Z,0.70
2024-04-30T10:51:27.558Z,0.80
2024-04-30T10:55:12.206Z,1.23
2024-04-30T10:58:58.121Z,0.38
2024-04-30T11:02:42.096Z,0.60
2024-04-30T11:06:24.062Z,0.68
2024-04-30T11:10:06.517Z,0.85
2024-04-30T11:13:49.214Z,0.40
2024-04-30T11:17:31.263Z,0.40
2024-04-30T11:21:13.541Z,0.80
2024-04-30T11:24:55.453Z,0.68
2024-04-30T11:28:37.616Z,0.45
2024-04-30T11:32:20.253Z,0.50
2024-04-30T11:36:02.331Z,0.32
2024-04-30T11:39:44.230Z,0.40
2024-04-30T11:43:26.475Z,0.68
2024-04-30T11:47:09.194Z,0.57
2024-04-30T11:50:51.163Z,0.30
2024-04-30T11:54:36.509Z,0.40
2024-04-30T11:58:18.489Z,0.77
2024-04-30T12:02:00.470Z,0.50
2024-04-30T12:05:42.445Z,0.55
2024-04-30T12:09:24.383Z,0.73
2024-04-30T12:13:07.547Z,0.55
2024-04-30T12:16:50.580Z,0.52
2024-04-30T12:20:32.653Z,0.55
2024-04-30T12:24:14.632Z,0.52
2024-04-30T12:27:57.145Z,0.70
2024-04-30T12:31:42.582Z,0.50
2024-04-30T12:35:24.667Z,0.38
2024-04-30T12:39:06.632Z,0.50
2024-04-30T12:42:48.613Z,0.30
2024-04-30T12:46:30.868Z,0.47
2024-04-30T12:50:13.066Z,0.43
2024-04-30T12:53:56.427Z,0.30
2024-04-30T12:57:38.385Z,0.30
2024-04-30T13:01:22.447Z,0.40
2024-04-30T13:05:06.725Z,0.30
2024-04-30T13:08:48.824Z,0.30
2024-04-30T13:12:30.741Z,0.60
2024-04-30T13:16:13.070Z,0.50
2024-04-30T13:19:55.204Z,0.38
2024-04-30T13:23:37.786Z,0.50
2024-04-30T13:27:19.791Z,0.50
2024-04-30T13:31:02.667Z,0.60
2024-04-30T13:34:44.691Z,0.70
2024-04-30T13:38:26.778Z,0.47
2024-04-30T13:42:08.975Z,0.57
2024-04-30T13:45:50.923Z,0.50
2024-04-30T13:49:32.895Z,0.45
2024-04-30T13:53:14.999Z,0.70
2024-04-30T13:56:56.999Z,0.40
2024-04-30T14:00:39.044Z,0.70
2024-04-30T14:04:21.126Z,1.83
2024-04-30T14:08:03.190Z,0.80
2024-04-30T14:11:45.128Z,0.70
2024-04-30T14:15:27.097Z,0.77
2024-04-30T14:19:09.041Z,0.68
2024-04-30T14:22:51.343Z,0.77
2024-04-30T14:26:33.248Z,0.95
2024-04-30T14:30:15.219Z,0.60
2024-04-30T14:33:57.111Z,1.25
2024-04-30T14:37:39.446Z,1.13
2024-04-30T14:41:21.458Z,1.05
2024-04-30T14:45:03.498Z,1.02
2024-04-30T14:48:45.512Z,0.93
2024-04-30T14:52:27.494Z,1.00
2024-04-30T14:56:13.318Z,1.20
2024-04-30T14:59:55.375Z,1.20
2024-04-30T15:03:37.515Z,0.88
2024-04-30T15:07:20.455Z,1.10
2024-04-30T15:11:02.392Z,1.38
2024-04-30T15:14:44.326Z,1.30
2024-04-30T15:18:26.234Z,1.27
2024-04-30T15:22:09.721Z,1.27
2024-04-30T15:25:51.770Z,1.45
2024-04-30T15:29:33.775Z,1.38
2024-04-30T15:33:15.846Z,1.50
2024-04-30T15:36:57.871Z,1.50
2024-04-30T15:40:39.807Z,1.80
2024-04-30T15:44:21.872Z,2.20
2024-04-30T15:48:07.205Z,1.48
2024-04-30T15:51:51.498Z,1.55
2024-04-30T15:55:33.462Z,1.63
2024-04-30T15:59:15.426Z,1.60
2024-04-30T16:02:57.471Z,1.85
2024-04-30T16:06:40.953Z,1.88
2024-04-30T16:10:23.019Z,1.40
2024-04-30T16:14:04.926Z,1.42
2024-04-30T16:17:47.915Z,2.10
2024-04-30T16:21:29.901Z,1.70
2024-04-30T16:25:11.890Z,1.75
2024-04-30T16:28:54.174Z,2.10
2024-04-30T16:32:36.286Z,1.63
2024-04-30T16:36:24.406Z,1.17
2024-04-30T16:40:07.382Z,1.77
2024-04-30T16:43:49.351Z,1.60
2024-04-30T16:47:31.341Z,1.30
2024-04-30T16:51:14.596Z,1.65
2024-04-30T16:54:56.567Z,1.23
2024-04-30T16:58:38.617Z,1.90
2024-04-30T17:02:20.595Z,2.20
2024-04-30T17:06:06.262Z,1.92
2024-04-30T17:09:48.344Z,2.40
2024-04-30T17:13:30.273Z,2.05
2024-04-30T17:17:12.297Z,2.10
2024-04-30T17:20:59.261Z,1.58
2024-04-30T17:24:41.537Z,2.30
2024-04-30T17:28:23.616Z,1.70
2024-04-30T17:32:06.147Z,1.75
2024-04-30T17:35:48.072Z,2.30
2024-04-30T17:39:30.164Z,2.22
2024-04-30T17:43:13.163Z,2.10
2024-04-30T17:46:55.372Z,2.00
2024-04-30T17:50:38.382Z,1.20
2024-04-30T17:54:20.451Z,1.30
2024-04-30T17:58:02.645Z,0.85
2024-04-30T18:01:45.277Z,0.93
2024-04-30T18:05:27.396Z,0.60
2024-04-30T18:09:09.396Z,0.75
2024-04-30T18:12:51.442Z,0.70
2024-04-30T18:16:33.585Z,0.80
2024-04-30T18:20:15.506Z,0.73
2024-04-30T18:23:57.559Z,0.50
2024-04-30T18:27:39.497Z,0.75
2024-04-30T18:31:22.723Z,0.50
2024-04-30T18:35:04.958Z,0.60
2024-04-30T18:38:46.964Z,0.30
2024-04-30T18:42:28.979Z,0.20
2024-04-30T18:46:14.784Z,0.40
2024-04-30T18:49:56.712Z,0.20
2024-04-30T18:53:41.472Z,0.38
2024-04-30T18:57:23.469Z,0.20
2024-04-30T19:01:05.990Z,0.63
2024-04-30T19:04:48.063Z,0.35
2024-04-30T19:08:30.301Z,0.43
2024-04-30T19:12:12.242Z,0.52
2024-04-30T19:15:54.879Z,0.80
2024-04-30T19:19:36.844Z,1.20
2024-04-30T19:23:32.176Z,0.90
2024-04-30T19:27:14.813Z,0.50
2024-04-30T19:30:59.103Z,0.73
2024-04-30T19:34:41.227Z,0.40
2024-04-30T19:38:23.260Z,0.75
2024-04-30T19:42:05.386Z,0.60
2024-04-30T19:45:47.670Z,0.50
2024-04-30T19:49:29.752Z,0.60
2024-04-30T19:53:11.776Z,0.73
2024-04-30T19:56:53.674Z,0.55
2024-04-30T20:00:36.208Z,0.60
2024-04-30T20:04:18.278Z,0.65
2024-04-30T20:08:00.712Z,0.50
2024-04-30T20:11:43.109Z,0.80
2024-04-30T20:15:25.141Z,0.80
2024-04-30T20:19:07.205Z,0.77
2024-04-30T20:22:49.180Z,0.60
2024-04-30T20:26:31.086Z,0.75
2024-04-30T20:30:13.010Z,0.77
2024-04-30T20:33:56.523Z,0.57
2024-04-30T20:37:38.720Z,0.60
2024-04-30T20:41:21.961Z,0.80
2024-04-30T20:45:04.111Z,0.68
2024-04-30T20:48:46.464Z,0.50
2024-04-30T20:52:28.515Z,0.70
2024-04-30T20:56:10.809Z,0.95
2024-04-30T20:59:52.765Z,0.80
2024-04-30T21:03:34.760Z,0.65
2024-04-30T21:07:16.750Z,0.70
2024-04-30T21:10:58.688Z,0.77
2024-04-30T21:14:43.700Z,0.80
2024-04-30T21:18:25.706Z,0.73
2024-04-30T21:22:07.848Z,0.57
2024-04-30T21:25:49.838Z,0.40
2024-04-30T21:29:31.859Z,0.40
2024-04-30T21:33:14.244Z,0.43
2024-04-30T21:36:56.856Z,0.50
2024-04-30T21:40:38.932Z,0.50
2024-04-30T21:44:20.940Z,0.80
2024-04-30T21:48:03.005Z,0.70
2024-04-30T21:51:46.666Z,0.60
2024-04-30T21:55:30.328Z,0.50
2024-04-30T21:59:12.286Z,0.50
2024-04-30T22:03:02.191Z,0.50
2024-04-30T22:06:45.320Z,0.52
2024-04-30T22:10:27.225Z,0.60
2024-04-30T22:14:10.630Z,0.63
2024-04-30T22:17:52.659Z,0.90
2024-04-30T22:21:34.831Z,0.43
2024-04-30T22:25:16.958Z,0.60
2024-04-30T22:28:58.885Z,0.55
2024-04-30T22:32:40.849Z,0.40
2024-04-30T22:36:22.914Z,0.70
2024-04-30T22:40:05.631Z,0.55
2024-04-30T22:43:49.160Z,0.35
2024-04-30T22:47:31.271Z,0.50
2024-04-30T22:51:17.789Z,0.47
2024-04-30T22:54:59.761Z,0.55
2024-04-30T22:58:41.672Z,0.40
2024-04-30T23:02:23.618Z,0.30
2024-04-30T23:06:05.801Z,0.40
2024-04-30T23:09:47.760Z,0.50
2024-04-30T23:13:29.814Z,0.50
2024-04-30T23:17:11.832Z,0.60
2024-04-30T23:20:54.124Z,0.57
2024-04-30T23:24:36.098Z,0.50
2024-04-30T23:28:18.097Z,0.50
2024-04-30T23:32:00.272Z,0.50
2024-04-30T23:35:42.333Z,0.75
2024-04-30T23:39:24.325Z,0.57
2024-04-30T23:43:06.797Z,0.63
2024-04-30T23:46:48.810Z,0.70
2024-04-30T23:50:30.726Z,1.00
2024-04-30T23:54:12.732Z,0.63
2024-04-30T23:57:54.881Z,0.63
